createdAt,value
2019-01-25T00:01:05.581Z,34.00
2019-01-25T00:03:36.357Z,34.37
2019-01-25T00:06:08.066Z,37.97
2019-01-25T00:08:39.396Z,38.93
2019-01-25T00:11:10.451Z,39.00
2019-01-25T00:13:41.586Z,40.60
2019-01-25T00:16:13.104Z,37.97
2019-01-25T00:18:45.113Z,40.27
2019-01-25T00:21:16.313Z,40.77
2019-01-25T00:23:46.566Z,40.10
2019-01-25T00:26:17.240Z,39.70
2019-01-25T00:28:47.467Z,40.77
2019-01-25T00:31:17.727Z,41.33
2019-01-25T00:33:50.855Z,36.73
2019-01-25T00:36:21.199Z,41.60
2019-01-25T00:38:51.561Z,40.30
2019-01-25T00:41:22.797Z,42.90
2019-01-25T00:43:54.285Z,41.77
2019-01-25T00:46:25.569Z,40.93
2019-01-25T00:48:56.639Z,41.53
2019-01-25T00:51:27.607Z,38.40
2019-01-25T00:54:00.309Z,42.37
2019-01-25T00:56:29.952Z,41.90
2019-01-25T00:59:02.754Z,39.13
2019-01-25T01:01:35.281Z,41.80
2019-01-25T01:04:05.744Z,40.30
2019-01-25T01:06:35.954Z,40.37
2019-01-25T01:09:08.347Z,43.43
2019-01-25T01:11:39.297Z,41.73
2019-01-25T01:14:12.313Z,40.80
2019-01-25T01:16:43.520Z,36.83
2019-01-25T01:19:15.193Z,39.80
2019-01-25T01:21:46.554Z,41.03
2019-01-25T01:24:16.457Z,41.13
2019-01-25T01:26:49.718Z,40.30
2019-01-25T01:29:20.470Z,41.23
2019-01-25T01:31:52.739Z,37.70
2019-01-25T01:34:24.621Z,40.33
2019-01-25T01:36:56.096Z,41.57
2019-01-25T01:39:28.659Z,40.93
2019-01-25T01:41:59.090Z,38.87
2019-01-25T01:44:30.197Z,41.90
2019-01-25T01:47:01.267Z,41.40
2019-01-25T01:49:31.533Z,40.60
2019-01-25T01:52:04.122Z,41.70
2019-01-25T01:54:36.245Z,37.67
2019-01-25T01:57:08.233Z,42.23
2019-01-25T01:59:39.543Z,41.33
2019-01-25T02:02:11.764Z,41.27
2019-01-25T02:04:41.923Z,41.23
2019-01-25T02:07:12.213Z,41.13
2019-01-25T02:09:43.045Z,40.23
2019-01-25T02:12:22.839Z,37.87
2019-01-25T02:14:53.252Z,42.80
2019-01-25T02:17:24.378Z,40.80
2019-01-25T02:19:55.125Z,42.20
2019-01-25T02:22:26.241Z,41.53
2019-01-25T02:24:57.792Z,41.40
2019-01-25T02:27:29.317Z,38.70
2019-01-25T02:30:00.494Z,41.77
2019-01-25T02:32:30.909Z,41.60
2019-01-25T02:35:01.202Z,42.23
2019-01-25T02:37:31.497Z,40.07
2019-01-25T02:40:01.807Z,42.50
2019-01-25T02:42:33.317Z,38.10
2019-01-25T02:45:04.421Z,42.23
2019-01-25T02:47:35.791Z,42.37
2019-01-25T02:50:14.193Z,41.07
2019-01-25T02:52:45.321Z,38.97
2019-01-25T02:55:16.769Z,41.60
2019-01-25T02:57:47.733Z,43.63
2019-01-25T03:00:21.154Z,41.70
2019-01-25T03:02:54.057Z,41.33
2019-01-25T03:05:25.753Z,39.47
2019-01-25T03:07:55.702Z,42.33
2019-01-25T03:10:28.935Z,41.77
2019-01-25T03:13:01.823Z,38.37
2019-01-25T03:15:32.952Z,40.23
2019-01-25T03:18:04.137Z,42.30
2019-01-25T03:20:34.152Z,40.87
2019-01-25T03:23:05.247Z,41.70
2019-01-25T03:25:35.231Z,42.50
2019-01-25T03:28:10.062Z,42.40
2019-01-25T03:30:41.053Z,42.33
2019-01-25T03:33:12.064Z,41.43
2019-01-25T03:35:43.336Z,42.13
2019-01-25T03:38:15.215Z,41.17
2019-01-25T03:40:45.364Z,42.20
2019-01-25T03:43:17.345Z,39.73
2019-01-25T03:45:49.005Z,41.57
2019-01-25T03:48:20.274Z,42.13
2019-01-25T03:50:51.407Z,49.60
2019-01-25T03:53:21.715Z,48.40
2019-01-25T03:55:51.989Z,43.07
2019-01-25T03:58:23.068Z,49.07
2019-01-25T04:00:54.361Z,49.23
2019-01-25T04:03:26.434Z,49.50
2019-01-25T04:05:56.128Z,45.73
2019-01-25T04:08:28.306Z,45.67
2019-01-25T04:11:03.634Z,49.10
2019-01-25T04:13:31.539Z,49.03
2019-01-25T04:16:01.835Z,49.23
2019-01-25T04:18:33.075Z,53.47
2019-01-25T04:21:03.358Z,47.87
2019-01-25T04:23:34.516Z,49.10
2019-01-25T04:26:05.633Z,48.73
2019-01-25T04:28:35.928Z,42.87
2019-01-25T04:31:06.229Z,42.77
2019-01-25T04:33:37.355Z,41.37
2019-01-25T04:36:07.758Z,43.87
2019-01-25T04:38:38.893Z,44.43
2019-01-25T04:41:11.817Z,37.27
2019-01-25T04:43:44.234Z,38.73
2019-01-25T04:46:17.161Z,38.90
2019-01-25T04:48:47.423Z,37.17
2019-01-25T04:51:17.327Z,40.43
2019-01-25T04:53:47.397Z,39.00
2019-01-25T04:56:20.234Z,39.37
2019-01-25T04:58:50.503Z,34.70
2019-01-25T05:01:21.845Z,36.97
2019-01-25T05:03:52.058Z,34.93
2019-01-25T05:06:26.153Z,37.03
2019-01-25T05:08:58.599Z,36.70
2019-01-25T05:11:29.730Z,36.50
2019-01-25T05:14:00.906Z,36.07
2019-01-25T05:16:31.181Z,34.33
2019-01-25T05:19:02.309Z,36.10
2019-01-25T05:21:33.377Z,36.57
2019-01-25T05:24:08.992Z,35.10
2019-01-25T05:26:41.569Z,33.53
2019-01-25T05:29:14.808Z,35.77
2019-01-25T05:31:50.421Z,35.07
2019-01-25T05:34:21.525Z,36.33
2019-01-25T05:36:57.475Z,32.50
2019-01-25T05:39:28.502Z,33.57
2019-01-25T05:41:59.934Z,31.93
2019-01-25T05:44:32.422Z,31.57
2019-01-25T05:47:13.313Z,33.00
2019-01-25T05:49:43.493Z,32.47
2019-01-25T05:52:19.685Z,32.10
2019-01-25T05:54:51.237Z,30.47
2019-01-25T05:57:22.301Z,33.60
2019-01-25T05:59:56.581Z,30.37
2019-01-25T06:02:28.517Z,30.90
2019-01-25T06:05:01.285Z,28.20
2019-01-25T06:07:31.702Z,31.43
2019-01-25T06:10:05.201Z,31.40
2019-01-25T06:12:35.487Z,30.23
2019-01-25T06:15:09.666Z,33.00
2019-01-25T06:17:41.285Z,32.77
2019-01-25T06:20:14.487Z,33.07
2019-01-25T06:22:47.335Z,31.67
2019-01-25T06:25:18.550Z,34.43
2019-01-25T06:27:51.286Z,35.23
2019-01-25T06:30:22.606Z,31.30
2019-01-25T06:32:53.773Z,38.23
2019-01-25T06:35:26.034Z,41.53
2019-01-25T06:37:57.083Z,41.97
2019-01-25T06:40:27.169Z,40.80
2019-01-25T06:42:59.707Z,43.57
2019-01-25T06:45:32.591Z,44.10
2019-01-25T06:48:03.798Z,42.40
2019-01-25T06:50:34.970Z,41.83
2019-01-25T06:53:06.182Z,43.83
2019-01-25T06:55:37.425Z,42.90
2019-01-25T06:58:26.983Z,41.53
2019-01-25T07:01:08.515Z,40.13
2019-01-25T07:03:39.558Z,41.37
2019-01-25T07:06:13.089Z,42.37
2019-01-25T07:08:44.241Z,41.10
2019-01-25T07:11:15.960Z,43.83
2019-01-25T07:13:49.596Z,42.80
2019-01-25T07:16:19.864Z,44.13
2019-01-25T07:18:51.906Z,43.40
2019-01-25T07:21:23.321Z,41.17
2019-01-25T07:23:54.121Z,41.77
2019-01-25T07:26:23.891Z,42.00
2019-01-25T07:28:54.986Z,42.87
2019-01-25T07:31:26.354Z,40.17
2019-01-25T07:33:56.646Z,44.67
2019-01-25T07:36:27.017Z,44.47
2019-01-25T07:38:58.180Z,45.97
2019-01-25T07:41:29.675Z,40.30
2019-01-25T07:43:59.187Z,43.93
2019-01-25T07:46:30.979Z,44.30
2019-01-25T07:49:01.178Z,39.30
2019-01-25T07:51:35.305Z,44.87
2019-01-25T07:54:05.780Z,45.33
2019-01-25T07:56:36.089Z,44.90
2019-01-25T07:59:07.712Z,46.53
2019-01-25T08:01:39.679Z,44.20
2019-01-25T08:04:11.634Z,45.70
2019-01-25T08:06:45.838Z,46.60
2019-01-25T08:09:17.562Z,46.20
2019-01-25T08:11:50.512Z,46.03
2019-01-25T08:14:22.142Z,47.03
2019-01-25T08:16:53.340Z,46.20
2019-01-25T08:19:26.356Z,47.47
2019-01-25T08:24:47.266Z,48.20
2019-01-25T08:27:18.488Z,47.13
2019-01-25T08:29:50.787Z,45.27
2019-01-25T08:32:21.850Z,50.03
2019-01-25T08:34:53.034Z,50.37
2019-01-25T08:37:23.366Z,45.27
2019-01-25T08:39:54.502Z,49.17
2019-01-25T08:42:27.330Z,49.03
2019-01-25T08:45:00.514Z,50.87
2019-01-25T08:47:33.858Z,50.70
2019-01-25T08:50:07.202Z,50.77
2019-01-25T08:52:37.924Z,50.90
2019-01-25T08:55:11.113Z,49.13
2019-01-25T08:57:41.369Z,49.03
2019-01-25T09:00:15.984Z,47.13
2019-01-25T09:02:47.294Z,50.33
2019-01-25T09:05:18.248Z,45.27
2019-01-25T09:07:48.449Z,52.90
2019-01-25T09:10:23.595Z,48.80
2019-01-25T09:12:53.798Z,49.30
2019-01-25T09:15:26.666Z,50.33
2019-01-25T09:17:58.724Z,50.40
2019-01-25T09:20:29.518Z,51.83
2019-01-25T09:22:59.316Z,51.13
2019-01-25T09:25:30.838Z,52.00
2019-01-25T09:28:01.973Z,50.47
2019-01-25T09:30:33.542Z,48.17
2019-01-25T09:33:09.930Z,50.93
2019-01-25T09:35:42.697Z,52.23
2019-01-25T09:38:13.841Z,51.70
2019-01-25T09:40:46.258Z,50.80
2019-01-25T09:43:17.465Z,50.77
2019-01-25T09:45:47.670Z,51.43
2019-01-25T09:48:17.857Z,50.80
2019-01-25T09:50:52.819Z,52.20
2019-01-25T09:53:22.009Z,51.80
2019-01-25T09:55:52.161Z,53.03
2019-01-25T09:58:27.127Z,54.07
2019-01-25T10:01:02.394Z,50.90
2019-01-25T10:03:32.962Z,52.83
2019-01-25T10:06:04.942Z,56.17
2019-01-25T10:08:36.676Z,52.40
2019-01-25T10:11:09.515Z,58.10
2019-01-25T10:13:40.763Z,53.90
2019-01-25T10:16:11.049Z,55.97
2019-01-25T10:18:42.089Z,55.23
2019-01-25T10:21:12.450Z,56.40
2019-01-25T10:23:44.049Z,55.30
2019-01-25T10:26:17.131Z,54.63
2019-01-25T10:28:47.663Z,55.57
2019-01-25T10:31:18.777Z,53.90
2019-01-25T10:33:50.958Z,54.33
2019-01-25T10:36:22.401Z,55.63
2019-01-25T10:38:52.621Z,52.20
2019-01-25T10:41:23.854Z,54.97
2019-01-25T10:43:54.042Z,51.77
2019-01-25T10:46:24.886Z,50.10
2019-01-25T10:48:55.798Z,51.10
2019-01-25T10:51:29.898Z,45.83
2019-01-25T10:54:00.270Z,45.10
2019-01-25T10:56:30.679Z,39.40
2019-01-25T10:59:01.836Z,43.77
2019-01-25T11:01:32.973Z,42.37
2019-01-25T11:04:04.177Z,43.83
2019-01-25T11:06:34.401Z,41.70
2019-01-25T11:09:08.058Z,43.33
2019-01-25T11:11:39.429Z,45.10
2019-01-25T11:14:10.579Z,45.33
2019-01-25T11:16:42.485Z,44.13
2019-01-25T11:19:14.995Z,42.27
2019-01-25T11:21:45.129Z,42.17
2019-01-25T11:24:15.481Z,41.50
2019-01-25T11:26:46.610Z,42.80
2019-01-25T11:29:20.530Z,39.40
2019-01-25T11:31:51.732Z,41.40
2019-01-25T11:34:22.330Z,38.70
2019-01-25T11:36:53.667Z,38.40
2019-01-25T11:39:23.849Z,31.97
2019-01-25T11:41:57.323Z,34.47
2019-01-25T11:44:28.714Z,32.07
2019-01-25T11:47:01.617Z,29.67
2019-01-25T11:49:31.999Z,25.93
2019-01-25T11:52:03.307Z,24.73
2019-01-25T11:54:34.573Z,25.07
2019-01-25T11:57:05.815Z,21.83
2019-01-25T11:59:40.217Z,21.00
2019-01-25T12:02:11.452Z,19.67
2019-01-25T12:04:43.946Z,19.00
2019-01-25T12:07:15.066Z,18.93
2019-01-25T12:09:46.511Z,19.70
2019-01-25T12:12:19.404Z,19.13
2019-01-25T12:14:54.728Z,18.67
2019-01-25T12:17:25.122Z,18.50
2019-01-25T12:19:54.601Z,19.23
2019-01-25T12:22:24.070Z,15.73
2019-01-25T12:24:55.296Z,19.20
2019-01-25T12:27:25.486Z,21.17
2019-01-25T12:29:55.686Z,19.53
2019-01-25T12:32:28.528Z,18.50
2019-01-25T12:35:01.540Z,19.73
2019-01-25T12:37:33.531Z,20.03
2019-01-25T12:40:07.784Z,19.13
2019-01-25T12:42:39.538Z,20.83
2019-01-25T12:45:15.898Z,22.47
2019-01-25T12:47:47.107Z,22.73
2019-01-25T12:50:41.977Z,23.53
2019-01-25T12:53:13.863Z,21.50
2019-01-25T12:55:45.011Z,21.97
2019-01-25T12:58:26.039Z,21.83
2019-01-25T13:00:56.446Z,21.20
2019-01-25T13:03:27.804Z,20.53
2019-01-25T13:06:00.025Z,21.63
2019-01-25T13:08:34.375Z,19.27
2019-01-25T13:11:06.405Z,18.23
2019-01-25T13:13:36.605Z,19.73
2019-01-25T13:16:07.740Z,18.53
2019-01-25T13:18:38.869Z,18.00
2019-01-25T13:21:11.504Z,19.23
2019-01-25T13:23:41.778Z,18.60
2019-01-25T13:26:12.938Z,18.60
2019-01-25T13:28:46.699Z,18.50
2019-01-25T13:31:16.919Z,18.03
2019-01-25T13:33:47.270Z,18.93
2019-01-25T13:36:18.389Z,19.57
2019-01-25T13:38:48.602Z,20.50
2019-01-25T13:41:19.833Z,19.40
2019-01-25T13:43:51.803Z,18.93
2019-01-25T13:46:22.942Z,18.63
2019-01-25T13:48:53.383Z,18.80
2019-01-25T13:51:24.626Z,18.20
2019-01-25T13:53:55.753Z,18.70
2019-01-25T13:56:27.800Z,19.00
2019-01-25T13:59:00.298Z,17.50
2019-01-25T14:01:34.663Z,17.63
2019-01-25T14:04:04.695Z,17.17
2019-01-25T14:06:37.513Z,17.53
2019-01-25T14:09:10.214Z,17.53
2019-01-25T14:11:41.450Z,18.37
2019-01-25T14:14:15.088Z,18.43
2019-01-25T14:16:46.228Z,17.17
2019-01-25T14:19:18.791Z,16.53
2019-01-25T14:21:51.660Z,15.33
2019-01-25T14:24:21.850Z,16.33
2019-01-25T14:26:52.990Z,16.43
2019-01-25T14:29:23.294Z,16.70
2019-01-25T14:31:53.542Z,16.07
2019-01-25T14:34:24.812Z,18.17
2019-01-25T14:36:57.253Z,15.37
2019-01-25T14:39:28.684Z,16.20
2019-01-25T14:41:59.854Z,16.37
2019-01-25T14:44:31.317Z,15.53
2019-01-25T14:47:02.585Z,13.50
2019-01-25T14:49:35.397Z,15.63
2019-01-25T14:52:08.622Z,15.57
2019-01-25T14:54:39.090Z,15.10
2019-01-25T14:57:11.206Z,14.80
2019-01-25T14:59:42.448Z,14.93
2019-01-25T15:02:13.654Z,14.87
2019-01-25T15:04:44.995Z,14.73
2019-01-25T15:07:16.133Z,14.27
2019-01-25T15:09:47.841Z,14.80
2019-01-25T15:12:18.927Z,14.00
2019-01-25T15:14:49.561Z,14.77
2019-01-25T15:17:19.754Z,14.43
2019-01-25T15:19:51.976Z,14.73
2019-01-25T15:22:26.001Z,14.60
2019-01-25T15:24:57.159Z,15.13
2019-01-25T15:27:29.869Z,14.70
2019-01-25T15:29:59.952Z,15.80
2019-01-25T15:32:30.758Z,15.37
2019-01-25T15:35:00.842Z,15.30
2019-01-25T15:37:31.899Z,15.23
2019-01-25T15:40:03.217Z,16.80
2019-01-25T15:42:33.105Z,16.00
2019-01-25T15:45:03.305Z,13.33
2019-01-25T15:47:34.021Z,16.40
2019-01-25T15:50:07.031Z,17.97
2019-01-25T15:52:37.969Z,16.33
2019-01-25T15:55:10.680Z,16.53
2019-01-25T15:57:40.861Z,17.20
2019-01-25T16:00:14.622Z,17.67
2019-01-25T16:02:45.369Z,17.17
2019-01-25T16:05:26.955Z,14.47
2019-01-25T16:07:58.070Z,17.17
2019-01-25T16:10:30.429Z,16.93
2019-01-25T16:13:03.034Z,18.33
2019-01-25T16:15:34.273Z,17.60
2019-01-25T16:18:04.609Z,17.67
2019-01-25T16:20:36.281Z,16.37
2019-01-25T16:23:07.394Z,18.37
2019-01-25T16:25:37.469Z,19.67
2019-01-25T16:28:07.460Z,20.97
2019-01-25T16:30:38.630Z,18.27
2019-01-25T16:33:08.598Z,19.20
2019-01-25T16:35:39.325Z,19.17
2019-01-25T16:38:09.390Z,19.73
2019-01-25T16:40:41.933Z,19.97
2019-01-25T16:43:11.894Z,20.17
2019-01-25T16:45:43.550Z,20.63
2019-01-25T16:48:14.293Z,21.27
2019-01-25T16:50:47.815Z,20.77
2019-01-25T16:53:20.618Z,20.87
2019-01-25T16:55:51.252Z,18.33
2019-01-25T16:58:22.378Z,22.03
2019-01-25T17:00:52.610Z,21.00
2019-01-25T17:03:22.449Z,21.10
2019-01-25T17:05:53.509Z,22.17
2019-01-25T17:08:26.530Z,22.80
2019-01-25T17:10:56.469Z,22.53
2019-01-25T17:13:27.333Z,22.13
2019-01-25T17:15:58.460Z,20.27
2019-01-25T17:18:31.370Z,24.20
2019-01-25T17:21:02.125Z,23.50
2019-01-25T17:23:34.889Z,21.03
2019-01-25T17:26:05.625Z,24.27
2019-01-25T17:28:36.339Z,23.77
2019-01-25T17:31:06.423Z,24.40
2019-01-25T17:33:36.217Z,25.03
2019-01-25T17:36:06.479Z,22.37
2019-01-25T17:38:36.394Z,25.40
2019-01-25T17:41:06.363Z,24.83
2019-01-25T17:43:38.451Z,25.90
2019-01-25T17:46:08.331Z,26.00
2019-01-25T17:48:39.149Z,24.57
2019-01-25T17:51:11.882Z,25.23
2019-01-25T17:53:42.965Z,25.43
2019-01-25T17:56:16.374Z,22.50
2019-01-25T17:58:46.097Z,24.07
2019-01-25T18:01:17.213Z,23.00
2019-01-25T18:03:48.049Z,24.10
2019-01-25T18:06:18.805Z,24.10
2019-01-25T18:08:50.154Z,24.00
2019-01-25T18:11:20.129Z,24.57
2019-01-25T18:13:50.817Z,21.13
2019-01-25T18:16:20.611Z,23.30
2019-01-25T18:18:50.385Z,23.07
2019-01-25T18:21:22.038Z,23.07
2019-01-25T18:23:52.147Z,24.70
2019-01-25T18:26:22.517Z,23.73
2019-01-25T18:28:56.429Z,23.00
2019-01-25T18:31:27.001Z,21.23
2019-01-25T18:33:57.898Z,24.13
2019-01-25T18:36:29.055Z,24.87
2019-01-25T18:39:00.185Z,26.53
2019-01-25T18:41:31.730Z,25.87
2019-01-25T18:44:01.516Z,23.53
2019-01-25T18:46:33.336Z,26.17
2019-01-25T18:49:03.494Z,25.27
2019-01-25T18:51:33.674Z,20.97
2019-01-25T18:54:07.973Z,23.93
2019-01-25T18:56:37.847Z,21.43
2019-01-25T18:59:10.256Z,23.87
2019-01-25T19:01:42.765Z,23.13
2019-01-25T19:04:13.853Z,22.80
2019-01-25T19:06:44.611Z,23.77
2019-01-25T19:09:15.611Z,23.00
2019-01-25T19:11:45.426Z,21.07
2019-01-25T19:14:15.605Z,22.73
2019-01-25T19:16:45.693Z,22.07
2019-01-25T19:19:15.588Z,21.63
2019-01-25T19:21:46.285Z,22.13
2019-01-25T19:24:17.842Z,21.53
2019-01-25T19:26:47.633Z,23.20
2019-01-25T19:29:19.944Z,19.20
2019-01-25T19:31:51.605Z,22.83
2019-01-25T19:34:22.998Z,47.90
2019-01-25T19:36:56.058Z,21.67
2019-01-25T19:39:27.257Z,20.60
2019-01-25T19:41:58.431Z,18.97
2019-01-25T19:44:30.625Z,21.03
2019-01-25T19:47:01.818Z,20.03
2019-01-25T19:49:34.674Z,19.60
2019-01-25T19:52:07.372Z,19.67
2019-01-25T19:54:39.926Z,17.67
2019-01-25T19:57:09.938Z,19.57
2019-01-25T19:59:39.720Z,20.37
2019-01-25T20:02:10.559Z,20.90
2019-01-25T20:04:42.229Z,19.50
2019-01-25T20:07:14.165Z,20.50
2019-01-25T20:09:47.019Z,20.10
2019-01-25T20:12:18.976Z,20.63
2019-01-25T20:14:50.407Z,23.10
2019-01-25T20:17:22.158Z,19.70
2019-01-25T20:19:52.910Z,21.60
2019-01-25T20:22:23.893Z,22.50
2019-01-25T20:24:55.697Z,22.80
2019-01-25T20:27:25.461Z,19.90
2019-01-25T20:29:57.457Z,22.60
2019-01-25T20:32:29.869Z,23.50
2019-01-25T20:35:02.592Z,24.17
2019-01-25T20:37:35.142Z,20.03
2019-01-25T20:40:08.553Z,22.77
2019-01-25T20:42:38.052Z,22.53
2019-01-25T20:45:12.519Z,22.40
2019-01-25T20:47:43.725Z,23.33
2019-01-25T20:50:19.777Z,22.33
2019-01-25T20:52:52.241Z,23.00
2019-01-25T20:55:22.068Z,21.67
2019-01-25T20:57:51.533Z,21.97
2019-01-25T21:00:29.482Z,24.20
2019-01-25T21:03:00.848Z,24.40
2019-01-25T21:05:31.754Z,24.90
2019-01-25T21:08:02.738Z,20.43
2019-01-25T21:10:32.859Z,23.33
2019-01-25T21:13:05.310Z,22.73
2019-01-25T21:15:35.706Z,23.70
2019-01-25T21:18:06.918Z,24.10
2019-01-25T21:20:37.921Z,25.07
2019-01-25T21:23:08.846Z,23.63
2019-01-25T21:25:39.779Z,23.90
2019-01-25T21:28:09.787Z,24.13
2019-01-25T21:30:41.594Z,23.20
2019-01-25T21:33:12.693Z,24.97
2019-01-25T21:35:42.472Z,24.97
2019-01-25T21:38:12.645Z,24.90
2019-01-25T21:40:42.533Z,25.13
2019-01-25T21:43:13.238Z,23.87
2019-01-25T21:45:43.534Z,20.70
2019-01-25T21:48:14.799Z,24.07
2019-01-25T21:50:46.581Z,23.30
2019-01-25T21:53:17.893Z,24.43
2019-01-25T21:55:48.713Z,20.80
2019-01-25T21:58:20.083Z,22.37
2019-01-25T22:00:51.617Z,22.07
2019-01-25T22:03:21.513Z,20.93
2019-01-25T22:05:51.385Z,21.67
2019-01-25T22:08:23.318Z,19.63
2019-01-25T22:10:54.705Z,19.67
2019-01-25T22:13:27.177Z,20.43
2019-01-25T22:15:58.160Z,20.53
2019-01-25T22:18:29.242Z,19.77
2019-01-25T22:20:59.459Z,20.27
2019-01-25T22:23:29.751Z,19.17
2019-01-25T22:26:02.290Z,18.43
2019-01-25T22:28:33.382Z,20.00
2019-01-25T22:31:04.653Z,19.27
2019-01-25T22:33:35.676Z,18.70
2019-01-25T22:36:06.381Z,20.10
2019-01-25T22:38:36.840Z,19.77
2019-01-25T22:41:07.929Z,19.17
2019-01-25T22:43:39.930Z,19.97
2019-01-25T22:46:10.946Z,21.03
2019-01-25T22:48:44.708Z,21.83
2019-01-25T22:51:17.209Z,20.97
2019-01-25T22:53:47.368Z,21.27
2019-01-25T22:56:18.196Z,21.30
2019-01-25T22:58:48.015Z,19.90
2019-01-25T23:01:22.710Z,22.10
2019-01-25T23:04:01.945Z,22.50
2019-01-25T23:06:38.912Z,22.93
2019-01-25T23:09:12.998Z,22.20
2019-01-25T23:11:45.973Z,22.87
2019-01-25T23:14:16.602Z,22.20
2019-01-25T23:16:47.774Z,24.10
2019-01-25T23:19:18.615Z,65.90
2019-01-25T23:21:50.518Z,26.40
2019-01-25T23:24:20.569Z,24.23
2019-01-25T23:26:53.439Z,25.00
2019-01-25T23:29:22.786Z,24.20
2019-01-25T23:31:53.868Z,25.20
2019-01-25T23:34:23.737Z,25.37
2019-01-25T23:36:53.942Z,25.70
2019-01-25T23:39:23.720Z,24.97
2019-01-25T23:41:54.722Z,25.63
2019-01-25T23:44:25.877Z,27.53
2019-01-25T23:46:55.761Z,26.93
2019-01-25T23:49:26.769Z,25.97
2019-01-25T23:51:56.657Z,23.70
2019-01-25T23:54:26.759Z,28.20
2019-01-25T23:56:57.641Z,28.33
2019-01-25T23:59:28.639Z,27.57
